createdAt,value
2022-09-23T00:01:21.122Z,10.03
2022-09-23T00:03:49.725Z,9.94
2022-09-23T00:06:21.049Z,9.83
2022-09-23T00:08:52.195Z,9.85
2022-09-23T00:11:22.013Z,9.73
2022-09-23T00:13:50.631Z,9.82
2022-09-23T00:16:21.440Z,9.79
2022-09-23T00:18:50.456Z,9.78
2022-09-23T00:21:18.574Z,9.75
2022-09-23T00:23:46.656Z,9.78
2022-09-23T00:26:16.108Z,9.75
2022-09-23T00:28:44.034Z,9.82
2022-09-23T00:31:32.116Z,9.80
2022-09-23T00:34:00.884Z,9.86
2022-09-23T00:36:29.592Z,9.87
2022-09-23T00:38:57.381Z,9.70
2022-09-23T00:41:25.664Z,9.53
2022-09-23T00:43:58.683Z,9.49
2022-09-23T00:46:33.183Z,9.46
2022-09-23T00:49:04.024Z,9.45
2022-09-23T00:51:37.301Z,9.38
2022-09-23T00:54:05.780Z,9.46
2022-09-23T00:56:33.564Z,9.42
2022-09-23T00:59:01.270Z,9.38
2022-09-23T01:01:32.042Z,9.32
2022-09-23T01:04:00.311Z,9.20
2022-09-23T01:06:29.706Z,9.15
2022-09-23T01:08:57.748Z,9.15
2022-09-23T01:11:34.897Z,9.11
2022-09-23T01:14:12.956Z,9.12
2022-09-23T01:16:46.333Z,9.11
2022-09-23T01:19:36.287Z,9.24
2022-09-23T01:22:07.271Z,9.20
2022-09-23T01:24:36.007Z,9.17
2022-09-23T01:27:14.334Z,9.31
2022-09-23T01:30:06.755Z,9.32
2022-09-23T01:32:54.611Z,9.42
2022-09-23T01:35:35.498Z,9.43
2022-09-23T01:38:25.628Z,9.45
2022-09-23T01:41:21.054Z,9.41
2022-09-23T01:44:10.767Z,9.34
2022-09-23T01:46:48.081Z,9.21
2022-09-23T01:49:21.622Z,9.28
2022-09-23T01:51:59.992Z,9.35
2022-09-23T01:54:33.603Z,9.21
2022-09-23T01:57:04.757Z,9.10
2022-09-23T01:59:40.051Z,9.12
2022-09-23T02:02:12.014Z,9.18
2022-09-23T02:04:45.993Z,9.05
2022-09-23T02:07:29.332Z,9.07
2022-09-23T02:10:00.798Z,8.87
2022-09-23T02:12:29.508Z,8.76
2022-09-23T02:15:05.161Z,8.72
2022-09-23T02:17:43.874Z,8.66
2022-09-23T02:20:12.694Z,8.48
2022-09-23T02:22:44.138Z,8.33
2022-09-23T02:25:12.785Z,8.28
2022-09-23T02:27:50.616Z,8.24
2022-09-23T02:30:23.449Z,8.22
2022-09-23T02:33:06.492Z,8.18
2022-09-23T02:35:43.094Z,8.21
2022-09-23T02:38:26.247Z,8.26
2022-09-23T02:41:00.490Z,8.26
2022-09-23T02:43:36.487Z,8.41
2022-09-23T02:46:07.094Z,8.56
2022-09-23T02:48:53.630Z,8.67
2022-09-23T02:51:22.136Z,8.66
2022-09-23T02:53:56.688Z,8.66
2022-09-23T02:56:24.725Z,8.77
2022-09-23T02:58:54.601Z,8.66
2022-09-23T03:01:45.454Z,8.53
2022-09-23T03:04:31.829Z,8.39
2022-09-23T03:07:02.989Z,8.29
2022-09-23T03:09:38.800Z,8.36
2022-09-23T03:12:16.884Z,8.41
2022-09-23T03:15:08.752Z,8.53
2022-09-23T03:17:42.904Z,8.57
2022-09-23T03:20:15.646Z,8.45
2022-09-23T03:22:50.224Z,8.38
2022-09-23T03:25:25.264Z,8.56
2022-09-23T03:27:57.859Z,8.60
2022-09-23T03:30:27.080Z,8.62
2022-09-23T03:32:57.939Z,8.63
2022-09-23T03:35:27.798Z,8.63
2022-09-23T03:38:12.381Z,8.62
2022-09-23T03:40:43.046Z,8.76
2022-09-23T03:43:13.606Z,8.81
2022-09-23T03:45:42.840Z,8.77
2022-09-23T03:48:10.425Z,8.63
2022-09-23T03:50:39.494Z,8.70
2022-09-23T03:53:07.577Z,8.69
2022-09-23T03:55:37.672Z,8.80
2022-09-23T03:58:05.857Z,8.87
2022-09-23T04:00:36.384Z,8.91
2022-09-23T04:03:09.530Z,8.91
2022-09-23T04:05:40.002Z,8.85
2022-09-23T04:08:07.993Z,9.00
2022-09-23T04:10:36.463Z,8.97
2022-09-23T04:13:08.669Z,8.99
2022-09-23T04:15:36.889Z,8.97
2022-09-23T04:18:04.911Z,9.01
2022-09-23T04:20:33.289Z,8.96
2022-09-23T04:23:01.709Z,9.00
2022-09-23T04:25:29.542Z,8.85
2022-09-23T04:27:57.650Z,8.83
2022-09-23T04:30:25.955Z,8.77
2022-09-23T04:32:54.430Z,8.73
2022-09-23T04:35:22.440Z,8.70
2022-09-23T04:37:50.904Z,8.62
2022-09-23T04:40:19.721Z,8.63
2022-09-23T04:42:47.599Z,8.57
2022-09-23T04:45:15.843Z,8.63
2022-09-23T04:47:46.645Z,8.49
2022-09-23T04:50:14.619Z,8.49
2022-09-23T04:52:42.034Z,8.45
2022-09-23T04:55:11.354Z,8.29
2022-09-23T04:57:40.263Z,8.41
2022-09-23T05:00:08.758Z,8.38
2022-09-23T05:02:41.974Z,8.42
2022-09-23T05:05:10.084Z,8.45
2022-09-23T05:07:37.848Z,8.42
2022-09-23T05:10:06.151Z,8.36
2022-09-23T05:12:34.253Z,8.45
2022-09-23T05:15:02.771Z,8.33
2022-09-23T05:17:31.752Z,8.39
2022-09-23T05:20:00.039Z,8.36
2022-09-23T05:22:30.516Z,8.26
2022-09-23T05:25:00.147Z,8.36
2022-09-23T05:27:27.837Z,8.49
2022-09-23T05:29:55.544Z,8.63
2022-09-23T05:32:23.818Z,8.77
2022-09-23T05:34:55.286Z,8.90
2022-09-23T05:37:23.872Z,8.81
2022-09-23T05:39:52.276Z,8.93
2022-09-23T05:42:22.601Z,8.99
2022-09-23T05:44:50.931Z,8.99
2022-09-23T05:47:19.265Z,9.00
2022-09-23T05:49:59.651Z,9.05
2022-09-23T05:52:35.042Z,9.01
2022-09-23T05:55:04.301Z,9.12
2022-09-23T05:57:35.738Z,9.14
2022-09-23T06:00:04.876Z,9.12
2022-09-23T06:02:42.844Z,9.22
2022-09-23T06:05:12.195Z,9.39
2022-09-23T06:08:04.587Z,9.53
2022-09-23T06:10:43.309Z,9.38
2022-09-23T06:13:15.443Z,9.45
2022-09-23T06:15:48.743Z,9.48
2022-09-23T06:18:23.505Z,9.72
2022-09-23T06:20:52.711Z,9.83
2022-09-23T06:26:07.363Z,9.62
2022-09-23T06:28:48.230Z,9.58
2022-09-23T06:31:21.873Z,9.80
2022-09-23T06:33:50.255Z,10.38
2022-09-23T06:36:38.666Z,11.63
2022-09-23T06:39:11.598Z,13.59
2022-09-23T06:41:39.576Z,13.25
2022-09-23T06:44:23.980Z,13.69
2022-09-23T06:46:58.772Z,15.50
2022-09-23T06:49:30.240Z,16.84
2022-09-23T06:52:00.096Z,17.39
2022-09-23T06:54:31.200Z,18.14
2022-09-23T06:57:10.551Z,19.89
2022-09-23T06:59:39.237Z,20.26
2022-09-23T07:02:10.218Z,20.10
2022-09-23T07:04:38.451Z,20.00
2022-09-23T07:07:06.752Z,21.26
2022-09-23T07:09:34.695Z,20.70
2022-09-23T07:12:03.210Z,21.67
2022-09-23T07:14:31.154Z,20.67
2022-09-23T07:17:00.845Z,21.43
2022-09-23T07:19:31.666Z,21.34
2022-09-23T07:22:00.904Z,21.34
2022-09-23T07:24:29.936Z,21.70
2022-09-23T07:26:58.097Z,22.08
2022-09-23T07:29:27.806Z,22.58
2022-09-23T07:32:05.704Z,21.84
2022-09-23T07:34:38.013Z,22.68
2022-09-23T07:37:07.362Z,22.75
2022-09-23T07:39:37.539Z,21.59
2022-09-23T07:42:06.526Z,21.08
2022-09-23T07:44:34.721Z,20.76
2022-09-23T07:47:04.153Z,21.32
2022-09-23T07:49:36.096Z,21.05
2022-09-23T07:52:07.502Z,21.07
2022-09-23T07:54:41.051Z,21.07
2022-09-23T07:57:09.385Z,21.98
2022-09-23T07:59:36.998Z,21.60
2022-09-23T08:02:05.434Z,20.80
2022-09-23T08:04:34.494Z,21.25
2022-09-23T08:07:07.151Z,20.49
2022-09-23T08:09:42.986Z,20.19
2022-09-23T08:12:16.077Z,21.05
2022-09-23T08:14:45.921Z,22.31
2022-09-23T08:17:15.017Z,22.49
2022-09-23T08:19:43.048Z,23.21
2022-09-23T08:22:12.831Z,21.09
2022-09-23T08:24:41.158Z,17.83
2022-09-23T08:27:10.594Z,16.76
2022-09-23T08:29:38.537Z,15.85
2022-09-23T08:32:06.681Z,15.97
2022-09-23T08:34:36.049Z,16.23
2022-09-23T08:37:04.767Z,16.04
2022-09-23T08:39:32.394Z,16.04
2022-09-23T08:42:16.993Z,15.82
2022-09-23T08:44:59.308Z,15.75
2022-09-23T08:47:32.808Z,15.55
2022-09-23T08:50:05.222Z,15.72
2022-09-23T08:52:55.352Z,15.85
2022-09-23T08:55:37.653Z,15.53
2022-09-23T08:58:26.457Z,15.67
2022-09-23T09:01:04.790Z,16.02
2022-09-23T09:03:43.596Z,16.13
2022-09-23T09:06:18.262Z,16.15
2022-09-23T09:09:02.573Z,15.95
2022-09-23T09:11:48.690Z,15.71
2022-09-23T09:14:29.412Z,15.82
2022-09-23T09:17:13.116Z,16.18
2022-09-23T09:19:53.571Z,16.20
2022-09-23T09:22:30.613Z,16.23
2022-09-23T09:25:16.860Z,16.36
2022-09-23T09:27:49.047Z,16.47
2022-09-23T09:30:25.854Z,16.68
2022-09-23T09:33:07.977Z,16.63
2022-09-23T09:35:57.008Z,16.52
2022-09-23T09:38:30.531Z,16.60
2022-09-23T09:41:10.941Z,16.83
2022-09-23T09:43:49.759Z,16.92
2022-09-23T09:46:38.981Z,16.80
2022-09-23T09:49:13.791Z,16.56
2022-09-23T09:51:53.074Z,17.03
2022-09-23T09:54:27.814Z,17.24
2022-09-23T09:57:01.021Z,17.14
2022-09-23T09:59:30.632Z,16.84
2022-09-23T10:02:22.742Z,16.71
2022-09-23T10:05:05.886Z,17.28
2022-09-23T10:07:37.847Z,17.52
2022-09-23T10:10:32.398Z,17.59
2022-09-23T10:13:17.048Z,17.42
2022-09-23T10:15:45.934Z,17.19
2022-09-23T10:18:23.494Z,17.31
2022-09-23T10:20:51.475Z,17.97
2022-09-23T10:23:26.236Z,18.18
2022-09-23T10:26:05.533Z,18.37
2022-09-23T10:28:42.108Z,18.32
2022-09-23T10:31:26.854Z,18.55
2022-09-23T10:34:06.197Z,18.45
2022-09-23T10:36:43.830Z,17.72
2022-09-23T10:39:30.868Z,17.42
2022-09-23T10:42:39.411Z,17.45
2022-09-23T10:45:43.532Z,17.65
2022-09-23T10:48:30.471Z,17.38
2022-09-23T10:51:01.229Z,16.84
2022-09-23T10:53:44.650Z,17.10
2022-09-23T10:56:16.727Z,17.07
2022-09-23T10:59:05.763Z,16.85
2022-09-23T11:01:59.404Z,16.92
2022-09-23T11:04:55.523Z,17.56
2022-09-23T11:07:46.065Z,18.47
2022-09-23T11:10:47.906Z,19.03
2022-09-23T11:13:19.376Z,19.35
2022-09-23T11:16:04.704Z,19.37
2022-09-23T11:18:52.012Z,18.85
2022-09-23T11:21:46.575Z,18.88
2022-09-23T11:24:58.977Z,17.94
2022-09-23T11:27:52.228Z,18.01
2022-09-23T11:30:21.544Z,17.79
2022-09-23T11:33:28.827Z,17.55
2022-09-23T11:36:00.246Z,17.32
2022-09-23T11:38:46.879Z,17.22
2022-09-23T11:41:27.272Z,18.08
2022-09-23T11:44:10.455Z,18.41
2022-09-23T11:47:03.096Z,18.13
2022-09-23T11:49:49.965Z,17.57
2022-09-23T11:52:30.367Z,17.94
2022-09-23T11:55:03.135Z,18.03
2022-09-23T11:57:52.303Z,17.82
2022-09-23T12:00:24.635Z,17.70
2022-09-23T12:03:07.817Z,17.93
2022-09-23T12:05:40.282Z,18.01
2022-09-23T12:08:29.943Z,18.40
2022-09-23T12:11:16.514Z,19.19
2022-09-23T12:14:05.473Z,18.90
2022-09-23T12:17:08.151Z,18.30
2022-09-23T12:19:54.805Z,18.28
2022-09-23T12:23:07.991Z,18.11
2022-09-23T12:25:52.664Z,18.42
2022-09-23T12:28:24.898Z,19.37
2022-09-23T12:30:54.309Z,19.21
2022-09-23T12:33:27.826Z,19.02
2022-09-23T12:36:05.093Z,18.48
2022-09-23T12:38:50.846Z,18.90
2022-09-23T12:41:19.816Z,19.41
2022-09-23T12:43:55.603Z,20.05
2022-09-23T12:46:27.712Z,20.46
2022-09-23T12:48:58.211Z,19.98
2022-09-23T12:51:32.913Z,20.05
2022-09-23T12:54:03.579Z,19.61
2022-09-23T12:56:34.508Z,19.37
2022-09-23T12:59:02.641Z,19.31
2022-09-23T13:01:36.800Z,18.92
2022-09-23T13:04:23.295Z,18.40
2022-09-23T13:06:59.117Z,18.42
2022-09-23T13:09:31.813Z,18.69
2022-09-23T13:12:04.239Z,18.52
2022-09-23T13:14:32.837Z,18.25
2022-09-23T13:17:00.300Z,18.23
2022-09-23T13:19:28.080Z,18.01
2022-09-23T13:22:00.686Z,18.03
2022-09-23T13:24:31.356Z,18.11
2022-09-23T13:27:16.551Z,18.48
2022-09-23T13:30:08.470Z,18.90
2022-09-23T13:32:39.327Z,18.99
2022-09-23T13:35:13.278Z,18.81
2022-09-23T13:37:48.923Z,19.16
2022-09-23T13:40:16.921Z,19.28
2022-09-23T13:43:11.022Z,19.47
2022-09-23T13:45:40.580Z,19.35
2022-09-23T13:48:11.497Z,19.13
2022-09-23T13:50:40.990Z,18.73
2022-09-23T13:53:13.427Z,18.53
2022-09-23T13:55:42.242Z,18.21
2022-09-23T13:58:20.485Z,18.20
2022-09-23T14:00:48.673Z,18.03
2022-09-23T14:03:29.359Z,17.93
2022-09-23T14:06:00.830Z,17.91
2022-09-23T14:08:29.503Z,18.04
2022-09-23T14:10:59.268Z,17.94
2022-09-23T14:13:27.155Z,18.00
2022-09-23T14:15:58.445Z,18.23
2022-09-23T14:18:33.012Z,18.21
2022-09-23T14:21:01.072Z,18.05
2022-09-23T14:23:28.572Z,17.84
2022-09-23T14:25:57.300Z,17.80
2022-09-23T14:28:26.528Z,17.76
2022-09-23T14:30:57.820Z,17.98
2022-09-23T14:33:32.690Z,18.11
2022-09-23T14:36:31.382Z,18.28
2022-09-23T14:39:07.618Z,18.42
2022-09-23T14:41:39.565Z,18.49
2022-09-23T14:44:07.703Z,17.96
2022-09-23T14:46:36.383Z,17.86
2022-09-23T14:49:10.818Z,18.08
2022-09-23T14:51:55.471Z,18.10
2022-09-23T14:54:44.397Z,17.93
2022-09-23T14:57:24.069Z,17.97
2022-09-23T15:00:00.212Z,17.86
2022-09-23T15:02:35.768Z,17.93
2022-09-23T15:05:20.442Z,17.87
2022-09-23T15:07:53.054Z,17.96
2022-09-23T15:10:28.249Z,17.87
2022-09-23T15:13:02.765Z,17.91
2022-09-23T15:15:31.897Z,17.86
2022-09-23T15:18:07.379Z,17.91
2022-09-23T15:20:35.071Z,17.91
2022-09-23T15:23:02.522Z,17.67
2022-09-23T15:25:40.837Z,17.79
2022-09-23T15:28:11.496Z,17.77
2022-09-23T15:30:39.592Z,17.80
2022-09-23T15:33:09.683Z,17.87
2022-09-23T15:35:37.632Z,17.82
2022-09-23T15:38:05.221Z,17.80
2022-09-23T15:40:34.299Z,17.70
2022-09-23T15:43:21.115Z,17.65
2022-09-23T15:45:52.836Z,17.53
2022-09-23T15:48:26.066Z,17.53
2022-09-23T15:50:54.532Z,17.42
2022-09-23T15:53:27.224Z,17.36
2022-09-23T15:55:55.451Z,17.35
2022-09-23T15:58:23.756Z,17.24
2022-09-23T16:00:56.051Z,17.25
2022-09-23T16:03:30.914Z,17.28
2022-09-23T16:06:01.452Z,17.18
2022-09-23T16:08:29.895Z,17.12
2022-09-23T16:10:57.734Z,17.08
2022-09-23T16:13:25.230Z,16.97
2022-09-23T16:15:53.371Z,16.98
2022-09-23T16:18:21.135Z,16.88
2022-09-23T16:20:49.644Z,16.84
2022-09-23T16:23:37.384Z,16.87
2022-09-23T16:26:27.073Z,16.74
2022-09-23T16:28:55.594Z,16.64
2022-09-23T16:31:25.663Z,16.34
2022-09-23T16:33:53.826Z,16.34
2022-09-23T16:36:27.780Z,16.20
2022-09-23T16:38:55.884Z,16.29
2022-09-23T16:41:24.788Z,16.36
2022-09-23T16:43:53.471Z,16.46
2022-09-23T16:46:21.539Z,16.26
2022-09-23T16:48:52.907Z,16.23
2022-09-23T16:51:22.419Z,16.08
2022-09-23T16:53:51.371Z,16.22
2022-09-23T16:56:27.298Z,16.09
2022-09-23T16:58:56.729Z,15.89
2022-09-23T17:01:44.440Z,15.84
2022-09-23T17:04:13.687Z,15.91
2022-09-23T17:06:50.780Z,15.77
2022-09-23T17:09:20.551Z,15.75
2022-09-23T17:11:53.646Z,15.85
2022-09-23T17:14:21.590Z,15.71
2022-09-23T17:16:49.215Z,15.41
2022-09-23T17:19:16.994Z,15.58
2022-09-23T17:21:45.068Z,15.62
2022-09-23T17:24:13.392Z,15.60
2022-09-23T17:26:41.050Z,15.51
2022-09-23T17:29:09.969Z,15.40
2022-09-23T17:31:37.824Z,15.11
2022-09-23T17:34:05.803Z,15.10
2022-09-23T17:36:33.460Z,15.13
2022-09-23T17:39:01.755Z,14.89
2022-09-23T17:41:29.999Z,15.02
2022-09-23T17:43:58.929Z,14.90
2022-09-23T17:46:29.217Z,14.80
2022-09-23T17:48:57.574Z,14.89
2022-09-23T17:51:26.634Z,14.61
2022-09-23T17:53:54.944Z,14.28
2022-09-23T17:56:25.688Z,14.10
2022-09-23T17:58:54.119Z,14.21
2022-09-23T18:01:23.810Z,14.48
2022-09-23T18:03:55.537Z,14.45
2022-09-23T18:06:24.315Z,14.42
2022-09-23T18:08:52.525Z,14.44
2022-09-23T18:11:23.046Z,14.46
2022-09-23T18:14:07.629Z,14.34
2022-09-23T18:16:37.213Z,14.24
2022-09-23T18:19:05.570Z,14.07
2022-09-23T18:21:35.987Z,14.17
2022-09-23T18:24:30.860Z,14.13
2022-09-23T18:26:52.970Z,14.09
2022-09-23T18:29:20.379Z,13.73
2022-09-23T18:31:51.160Z,13.65
2022-09-23T18:34:19.286Z,13.63
2022-09-23T18:36:46.822Z,13.87
2022-09-23T18:39:14.523Z,13.93
2022-09-23T18:41:43.929Z,13.97
2022-09-23T18:44:11.600Z,13.84
2022-09-23T18:46:39.753Z,13.74
2022-09-23T18:49:26.353Z,13.63
2022-09-23T18:51:55.962Z,13.77
2022-09-23T18:54:24.538Z,13.59
2022-09-23T18:56:53.262Z,13.52
2022-09-23T18:59:24.050Z,13.29
2022-09-23T19:01:52.253Z,13.08
2022-09-23T19:04:21.695Z,12.84
2022-09-23T19:06:50.329Z,12.81
2022-09-23T19:09:18.170Z,12.88
2022-09-23T19:11:46.978Z,13.03
2022-09-23T19:14:14.726Z,12.97
2022-09-23T19:16:42.764Z,12.94
2022-09-23T19:19:11.149Z,12.84
2022-09-23T19:21:38.890Z,12.73
2022-09-23T19:24:07.913Z,12.57
2022-09-23T19:26:38.666Z,12.76
2022-09-23T19:29:08.458Z,12.73
2022-09-23T19:31:40.714Z,12.70
2022-09-23T19:34:12.814Z,12.74
2022-09-23T19:36:43.069Z,12.80
2022-09-23T19:39:18.537Z,12.77
2022-09-23T19:41:47.074Z,12.91
2022-09-23T19:44:15.089Z,12.88
2022-09-23T19:46:46.098Z,12.93
2022-09-23T19:49:14.161Z,12.88
2022-09-23T19:51:44.710Z,12.85
2022-09-23T19:54:13.252Z,12.98
2022-09-23T19:56:40.802Z,12.90
2022-09-23T19:59:09.781Z,12.88
2022-09-23T20:01:37.695Z,12.81
2022-09-23T20:04:05.792Z,12.87
2022-09-23T20:06:39.262Z,12.88
2022-09-23T20:09:07.066Z,12.81
2022-09-23T20:11:35.123Z,12.88
2022-09-23T20:14:03.941Z,12.74
2022-09-23T20:16:33.214Z,12.43
2022-09-23T20:19:01.197Z,12.28
2022-09-23T20:21:29.511Z,12.35
2022-09-23T20:24:01.100Z,12.16
2022-09-23T20:26:47.393Z,12.18
2022-09-23T20:29:15.171Z,12.26
2022-09-23T20:31:42.819Z,12.42
2022-09-23T20:34:11.251Z,12.45
2022-09-23T20:36:40.166Z,12.49
2022-09-23T20:39:08.220Z,12.59
2022-09-23T20:41:38.075Z,12.40
2022-09-23T20:44:08.199Z,12.40
2022-09-23T20:46:36.502Z,12.45
2022-09-23T20:49:04.341Z,12.46
2022-09-23T20:51:35.172Z,12.43
2022-09-23T20:54:02.762Z,12.33
2022-09-23T20:56:30.470Z,12.40
2022-09-23T20:59:01.471Z,12.21
2022-09-23T21:01:29.284Z,12.22
2022-09-23T21:03:56.924Z,12.04
2022-09-23T21:06:26.390Z,12.04
2022-09-23T21:08:54.782Z,11.99
2022-09-23T21:11:22.699Z,11.98
2022-09-23T21:13:51.226Z,11.95
2022-09-23T21:16:22.572Z,11.95
2022-09-23T21:18:50.672Z,11.96
2022-09-23T21:21:19.841Z,11.89
2022-09-23T21:23:48.012Z,11.91
2022-09-23T21:26:19.937Z,11.82
2022-09-23T21:28:48.879Z,11.77
2022-09-23T21:31:27.264Z,11.81
2022-09-23T21:34:02.457Z,11.79
2022-09-23T21:36:34.780Z,11.85
2022-09-23T21:39:03.350Z,11.88
2022-09-23T21:41:31.200Z,11.87
2022-09-23T21:43:59.736Z,11.88
2022-09-23T21:46:28.488Z,11.79
2022-09-23T21:48:57.647Z,11.74
2022-09-23T21:51:26.946Z,11.65
2022-09-23T21:53:55.386Z,11.58
2022-09-23T21:56:27.541Z,11.50
2022-09-23T21:58:55.706Z,11.47
2022-09-23T22:01:24.803Z,11.46
2022-09-23T22:03:54.170Z,11.43
2022-09-23T22:06:27.297Z,11.43
2022-09-23T22:08:59.388Z,11.43
2022-09-23T22:11:50.148Z,11.58
2022-09-23T22:14:20.449Z,11.43
2022-09-23T22:16:48.861Z,11.48
2022-09-23T22:19:16.909Z,11.44
2022-09-23T22:21:45.335Z,11.56
2022-09-23T22:24:13.006Z,11.61
2022-09-23T22:26:44.657Z,11.54
2022-09-23T22:29:32.602Z,11.46
2022-09-23T22:32:19.045Z,11.41
2022-09-23T22:34:50.683Z,11.38
2022-09-23T22:37:27.289Z,11.31
2022-09-23T22:39:55.153Z,11.33
2022-09-23T22:42:22.814Z,11.33
2022-09-23T22:44:50.821Z,11.30
2022-09-23T22:47:19.448Z,11.20
2022-09-23T22:49:47.781Z,11.06
2022-09-23T22:52:16.687Z,11.06
2022-09-23T22:54:44.422Z,11.00
2022-09-23T22:57:12.346Z,10.96
2022-09-23T22:59:42.449Z,10.95
2022-09-23T23:02:10.015Z,10.86
2022-09-23T23:04:37.503Z,10.78
2022-09-23T23:07:06.121Z,10.75
2022-09-23T23:09:33.673Z,10.69
2022-09-23T23:12:01.292Z,10.75
2022-09-23T23:14:31.688Z,10.76
2022-09-23T23:16:59.789Z,10.80
2022-09-23T23:19:27.357Z,10.82
2022-09-23T23:21:55.301Z,10.69
2022-09-23T23:24:23.399Z,10.79
2022-09-23T23:26:51.721Z,10.92
2022-09-23T23:29:20.563Z,10.96
2022-09-23T23:31:48.342Z,10.91
2022-09-23T23:34:17.754Z,10.75
2022-09-23T23:36:45.882Z,10.58
2022-09-23T23:39:13.997Z,10.42
2022-09-23T23:41:41.823Z,10.52
2022-09-23T23:44:09.426Z,10.67
2022-09-23T23:46:37.665Z,10.73
2022-09-23T23:49:06.931Z,10.80
2022-09-23T23:51:34.662Z,10.73
2022-09-23T23:54:02.239Z,10.69
2022-09-23T23:56:30.397Z,10.75
2022-09-23T23:58:59.101Z,10.65
